• Join FlightAware (Why Join?)
  • Login
  • US Flag 
06:49PM EDT


 

Airport Tracker/Info


-or-


 

Live Flight TrackerFlight Track Log ✈ N1253W ✈ 13-Apr-2013 ✈ KOSU - KPDK

Flight Track Log - Related Links

Times and Time Zones

All times are in EDT time to prevent confusion due to time zone crossing. See the N1253W flight status page for this flight to view local times or setup timezone preferences in your user account.

Time Position Orientation Groundspeed Altitude Reporting Facility
EDT Latitude Longitude Course Direction KTS MPH feet Rate Location/Type
11:57AM 40.0764 -83.0847 259° West 119 137 1,200  Level Indianapolis Center
11:57AM 40.0725 -83.1117 259° West 140 161 2,200 1,500 Climbing Indianapolis Center
11:58AM 40.0600 -83.1339 234° Southwest 158 182 2,800 780 Climbing Indianapolis Center
11:58AM 40.0417 -83.1625 230° Southwest 191 220 3,000 240 Climbing Indianapolis Center
11:59AM 40.0236 -83.1872 226° Southwest 179 206 3,100 720 Climbing Indianapolis Center
11:59AM 40.0014 -83.2014 206° Southwest 206 237 3,700 1,140 Climbing Indianapolis Center
12:00PM 39.9689 -83.1903 165° South 198 228 4,300 1,500 Climbing Indianapolis Center
12:01PM 39.9169 -83.1717 165° South 196 226 6,300 1,800 Climbing Indianapolis Center
12:02PM 39.8658 -83.1461 159° South 193 222 8,000 1,680 Climbing Indianapolis Center
12:03PM 39.8208 -83.0978 140° Southeast 213 245 9,800 1,560 Climbing Indianapolis Center
12:04PM 39.7750 -83.0344 133° Southeast 233 268 11,200 1,560 Climbing Indianapolis Center
12:05PM 39.7322 -82.9669 129° Southeast 238 274 13,100 1,680 Climbing Indianapolis Center
12:06PM 39.6897 -82.9025 131° Southeast 234 269 14,700 1,380 Climbing Indianapolis Center
12:07PM 39.6358 -82.8553 146° Southeast 231 266 16,000 1,320 Climbing Indianapolis Center
12:08PM 39.5881 -82.8706 194° South 177 204 17,500 1,380 Climbing Indianapolis Center
12:09PM 39.5419 -82.8897 198° South 173 199 18,900 1,440 Climbing Indianapolis Center
12:10PM 39.4858 -82.9039 191° South 175 201 20,500 1,320 Climbing Indianapolis Center
12:11PM 39.4386 -82.9206 195° South 173 199 21,700 1,140 Climbing Indianapolis Center
12:12PM 39.3897 -82.9314 190° South 175 201 22,900 1,080 Climbing Indianapolis Center
12:13PM 39.3436 -82.9453 193° South 171 197 23,900 1,020 Climbing Indianapolis Center
12:14PM 39.2975 -82.9606 194° South 170 196 25,000 900 Climbing Indianapolis Center
12:15PM 39.2511 -82.9722 191° South 168 193 25,800 480 Climbing Indianapolis Center
12:16PM 39.2028 -82.9858 192° South 172 198 26,000 60 Climbing Indianapolis Center
12:17PM 39.1500 -83.0022 194° South 190 219 26,000  Level Indianapolis Center
12:18PM 39.0903 -83.0183 192° South 211 243 26,000  Level Indianapolis Center
12:19PM 39.0278 -83.0364 193° South 225 259 26,000  Level Indianapolis Center
12:20PM 38.9664 -83.0550 193° South 228 262 26,000  Level Indianapolis Center
12:21PM 38.9044 -83.0728 193° South 228 262 26,000  Level Indianapolis Center
12:22PM 38.8278 -83.0939 192° South 233 268 26,000  Level Indianapolis Center
12:23PM 38.7658 -83.1122 193° South 229 264 26,000  Level Indianapolis Center
12:24PM 38.7022 -83.1297 192° South 233 268 26,000  Level Indianapolis Center
12:25PM 38.6386 -83.1486 193° South 230 265 26,000  Level Indianapolis Center
12:26PM 38.5753 -83.1664 192° South 232 267 26,000  Level Indianapolis Center
12:27PM 38.5125 -83.1833 192° South 231 266 26,000  Level Indianapolis Center
12:28PM 38.4486 -83.2014 192° South 234 269 26,000  Level Indianapolis Center
12:29PM 38.3850 -83.2208 193° South 235 270 26,000  Level Indianapolis Center
12:30PM 38.3206 -83.2375 191° South 236 272 26,000  Level Indianapolis Center
12:31PM 38.2561 -83.2569 193° South 238 274 26,000  Level Indianapolis Center
12:32PM 38.1794 -83.2778 192° South 241 277 26,000  Level Indianapolis Center
12:33PM 38.1133 -83.2969 193° South 243 280 26,000  Level Indianapolis Center
12:34PM 38.0492 -83.3139 192° South 237 273 26,000  Level Indianapolis Center
12:35PM 37.9839 -83.3311 192° South 238 274 26,000  Level Indianapolis Center
12:36PM 37.9186 -83.3514 194° South 241 277 26,000  Level Indianapolis Center
12:37PM 37.8539 -83.3689 192° South 239 275 26,000  Level Indianapolis Center
12:38PM 37.7886 -83.3881 193° South 239 275 26,000  Level Indianapolis Center
12:39PM 37.7239 -83.4053 192° South 238 274 26,000  Level Indianapolis Center
12:40PM 37.6464 -83.4256 192° South 242 278 26,000  Level Indianapolis Center
12:42PM 37.5825 -83.4433 192° South 237 273 26,000  Level Indianapolis Center
12:43PM 37.5167 -83.4617 192° South 240 276 26,000  Level Indianapolis Center
12:44PM 37.4514 -83.4794 192° South 240 276 26,000  Level Indianapolis Center
12:45PM 37.3858 -83.4978 193° South 241 277 26,000  Level Indianapolis Center
12:46PM 37.3203 -83.5153 192° South 241 277 26,000  Level Indianapolis Center
12:47PM 37.2542 -83.5336 192° South 242 278 26,000  Level Indianapolis Center
12:48PM 37.1881 -83.5517 192° South 242 278 26,000 -360 Level Indianapolis Center
12:49PM 37.1100 -83.5739 193° South 247 284 25,300 -540 Descending Indianapolis Center
12:50PM 37.0369 -83.5933 192° South 265 305 25,000 -180 Descending Indianapolis Center
12:51PM 36.9681 -83.6108 191° South 255 293 25,000  Level Indianapolis Center
12:52PM 36.9003 -83.6297 193° South 250 288 25,000  Level Indianapolis Center
12:53PM 36.8325 -83.6478 192° South 250 288 25,000  Level Indianapolis Center
12:54PM 36.7653 -83.6664 193° South 248 285 25,000  Level Indianapolis Center
12:55PM 36.6981 -83.6847 192° South 248 285 25,000  Level Indianapolis Center
12:56PM 36.6200 -83.7047 192° South 246 283 25,000  Level Indianapolis Center
12:57PM 36.5533 -83.7233 193° South 245 282 25,000  Level Indianapolis Center
12:58PM 36.4872 -83.7400 191° South 246 283 25,000  Level Indianapolis Center
12:59PM 36.4214 -83.7575 192° South 243 280 25,000  Level Indianapolis Center
01:00PM 36.3689 -83.7731 193° South 255 293 25,000  Level Atlanta Center
01:01PM 36.3042 -83.7914 193° South 255 293 25,000  Level Atlanta Center
01:02PM 36.2458 -83.8069 192° South 255 293 25,000  Level Atlanta Center
01:03PM 36.1792 -83.8228 191° South 255 293 25,000  Level Atlanta Center
01:04PM 36.1122 -83.8433 194° South 255 293 25,000  Level Atlanta Center
01:05PM 36.0436 -83.8589 190° South 255 293 25,000  Level Atlanta Center
01:06PM 35.9747 -83.8769 192° South 255 293 25,000  Level Atlanta Center
01:07PM 35.9058 -83.8953 192° South 255 293 25,000 -120 Level Atlanta Center
01:08PM 35.8286 -83.8800 171° South 260 299 24,800 -420 Descending Atlanta Center
01:09PM 35.7472 -83.8622 170° South 283 326 24,200 -420 Descending Atlanta Center
01:10PM 35.6658 -83.8444 170° South 297 342 24,000 -300 Descending Atlanta Center
01:11PM 35.5844 -83.8294 171° South 297 342 23,600 -660 Descending Atlanta Center
01:12PM 35.4989 -83.8167 173° South 297 342 22,700 -900 Descending Atlanta Center
01:13PM 35.4197 -83.8272 186° South 297 342 21,800 -960 Descending Atlanta Center
01:14PM 35.3383 -83.8403 187° South 297 342 20,800 -960 Descending Atlanta Center
01:15PM 35.2486 -83.8581 189° South 297 342 19,900 -1,020 Descending Atlanta Center
01:16PM 35.1653 -83.8711 187° South 297 342 18,800 -1,080 Descending Atlanta Center
01:17PM 35.0797 -83.8864 188° South 302 348 17,800 -1,080 Descending Atlanta Center
01:18PM 34.9922 -83.8994 187° South 307 353 16,700 -1,140 Descending Atlanta Center
01:19PM 34.9086 -83.9172 190° South 312 359 15,600 -1,200 Descending Atlanta Center
01:20PM 34.8253 -83.9275 186° South 312 359 14,400 -1,200 Descending Atlanta Center
01:21PM 34.7417 -83.9453 190° South 312 359 13,300 -1,140 Descending Atlanta Center
01:22PM 34.6708 -83.9556 187° South 317 365 12,200 -1,500 Descending Atlanta Center
01:23PM 34.5914 -83.9858 197° South 289 333 10,300 -1,800 Descending Atlanta Center
01:24PM 34.5228 -84.0236 204° Southwest 273 314 8,600 -1,200 Descending Atlanta Center
01:25PM 34.4517 -84.0414 192° South 266 306 8,000 -300 Descending Atlanta Center
01:26PM 34.3850 -84.0564 191° South 256 295 8,000  Level Atlanta Center
01:27PM 34.3203 -84.0739 193° South 251 289 8,000  Level Atlanta Center
01:28PM 34.2533 -84.1067 202° Southwest 241 277 8,000 -480 Level Atlanta Center
01:29PM 34.1844 -84.1217 190° South 243 280 7,100 -900 Descending Atlanta Center
01:30PM 34.1136 -84.1417 193° South 254 292 6,200 -1,020 Descending Atlanta Center
01:30PM 34.0833 -84.1500 193° South 257 296 5,800 -900 Descending Atlanta TRACON
01:31PM 34.0167 -84.1667 192° South 251 289 5,000 -900 Descending Atlanta TRACON
01:32PM 33.9500 -84.1833 192° South 230 265 4,000 -540 Descending Atlanta TRACON
01:33PM 33.9000 -84.1667 165° South 194 223 4,000  Level Atlanta TRACON
01:34PM 33.8500 -84.1667 180° South 196 226 4,000  Level Atlanta TRACON
01:35PM 33.8333 -84.2000 239° Southwest 184 212 4,000 -600 Level Atlanta TRACON
01:36PM 33.8167 -84.2667 253° West 174 200 2,900 -960 Descending Atlanta TRACON
01:37PM 33.8167 -84.3167 270° West 123 142 2,100 -720 Descending Atlanta TRACON
01:38PM 33.8500 -84.3167 360° North 128 147 1,500 -600 Descending Atlanta TRACON
01:40PM 33.8667 -84.3000 15° North  Level FlightAware Approximate